sensor_id;sensor_type;location;lat;lon;timestamp;temperature;humidity
19555;DHT22;9924;50.828;6.440;2022-12-13T00:01:49;-5.00;99.90
19555;DHT22;9924;50.828;6.440;2022-12-13T00:04:35;-5.00;99.90
19555;DHT22;9924;50.828;6.440;2022-12-13T00:07:19;-4.90;99.90
19555;DHT22;9924;50.828;6.440;2022-12-13T00:10:05;-4.90;99.90
19555;DHT22;9924;50.828;6.440;2022-12-13T00:12:51;-4.80;99.90
19555;DHT22;9924;50.828;6.440;2022-12-13T00:15:35;-4.80;99.90
19555;DHT22;9924;50.828;6.440;2022-12-13T00:18:20;-5.00;99.90
19555;DHT22;9924;50.828;6.440;2022-12-13T00:21:15;-5.10;99.90
19555;DHT22;9924;50.828;6.440;2022-12-13T00:24:01;-5.10;99.90
19555;DHT22;9924;50.828;6.440;2022-12-13T00:26:46;-5.00;99.90
19555;DHT22;9924;50.828;6.440;2022-12-13T00:29:31;-4.90;99.90
19555;DHT22;9924;50.828;6.440;2022-12-13T00:32:16;-4.90;99.90
19555;DHT22;9924;50.828;6.440;2022-12-13T00:35:00;-5.10;99.90
19555;DHT22;9924;50.828;6.440;2022-12-13T00:37:45;-5.10;99.90
19555;DHT22;9924;50.828;6.440;2022-12-13T00:40:29;-5.10;99.90
19555;DHT22;9924;50.828;6.440;2022-12-13T00:43:14;-5.20;99.90
19555;DHT22;9924;50.828;6.440;2022-12-13T00:45:58;-5.40;99.90
19555;DHT22;9924;50.828;6.440;2022-12-13T00:48:43;-5.30;99.90
19555;DHT22;9924;50.828;6.440;2022-12-13T00:51:29;-5.30;99.90
19555;DHT22;9924;50.828;6.440;2022-12-13T00:54:14;-5.30;99.90
19555;DHT22;9924;50.828;6.440;2022-12-13T00:56:59;-5.40;99.90
19555;DHT22;9924;50.828;6.440;2022-12-13T00:59:44;-5.40;99.90
19555;DHT22;9924;50.828;6.440;2022-12-13T01:02:28;-5.50;99.90
19555;DHT22;9924;50.828;6.440;2022-12-13T01:05:13;-5.40;99.90
19555;DHT22;9924;50.828;6.440;2022-12-13T01:07:58;-5.50;99.90
19555;DHT22;9924;50.828;6.440;2022-12-13T01:10:43;-5.50;99.90
19555;DHT22;9924;50.828;6.440;2022-12-13T01:13:28;-5.50;99.90
19555;DHT22;9924;50.828;6.440;2022-12-13T01:16:13;-5.40;99.90
19555;DHT22;9924;50.828;6.440;2022-12-13T01:18:58;-5.40;99.90
19555;DHT22;9924;50.828;6.440;2022-12-13T01:21:43;-5.30;99.90
19555;DHT22;9924;50.828;6.440;2022-12-13T01:24:28;-5.30;99.90
19555;DHT22;9924;50.828;6.440;2022-12-13T01:27:14;-5.40;99.90
19555;DHT22;9924;50.828;6.440;2022-12-13T01:29:59;-5.40;99.90
19555;DHT22;9924;50.828;6.440;2022-12-13T01:32:43;-5.40;99.90
19555;DHT22;9924;50.828;6.440;2022-12-13T01:35:27;-5.30;99.90
19555;DHT22;9924;50.828;6.440;2022-12-13T01:38:12;-5.30;99.90
19555;DHT22;9924;50.828;6.440;2022-12-13T01:40:57;-5.30;99.90
19555;DHT22;9924;50.828;6.440;2022-12-13T01:46:25;-5.40;99.90
19555;DHT22;9924;50.828;6.440;2022-12-13T01:49:14;-5.40;99.90
19555;DHT22;9924;50.828;6.440;2022-12-13T01:52:02;-5.40;99.90
19555;DHT22;9924;50.828;6.440;2022-12-13T01:54:50;-5.30;99.90
19555;DHT22;9924;50.828;6.440;2022-12-13T01:57:37;-5.30;99.90
19555;DHT22;9924;50.828;6.440;2022-12-13T02:00:25;-5.40;99.90
19555;DHT22;9924;50.828;6.440;2022-12-13T02:03:10;-5.30;99.90
19555;DHT22;9924;50.828;6.440;2022-12-13T02:06:05;-5.30;99.90
19555;DHT22;9924;50.828;6.440;2022-12-13T02:08:51;-5.40;99.90
19555;DHT22;9924;50.828;6.440;2022-12-13T02:11:39;-5.30;99.90
19555;DHT22;9924;50.828;6.440;2022-12-13T02:14:24;-5.30;99.90
19555;DHT22;9924;50.828;6.440;2022-12-13T02:17:32;-5.60;99.90
19555;DHT22;9924;50.828;6.440;2022-12-13T02:21:02;-5.70;99.90
19555;DHT22;9924;50.828;6.440;2022-12-13T02:26:58;-5.80;99.90
19555;DHT22;9924;50.828;6.440;2022-12-13T02:33:05;-5.80;99.90
19555;DHT22;9924;50.828;6.440;2022-12-13T02:38:57;-5.70;99.90
19555;DHT22;9924;50.828;6.440;2022-12-13T02:42:03;-5.70;99.90
19555;DHT22;9924;50.828;6.440;2022-12-13T02:45:19;-5.70;99.90
19555;DHT22;9924;50.828;6.440;2022-12-13T02:48:07;-5.80;99.90
19555;DHT22;9924;50.828;6.440;2022-12-13T02:50:53;-5.80;99.90
19555;DHT22;9924;50.828;6.440;2022-12-13T02:53:39;-5.80;99.90
19555;DHT22;9924;50.828;6.440;2022-12-13T02:56:25;-5.80;99.90
19555;DHT22;9924;50.828;6.440;2022-12-13T02:59:12;-5.80;99.90
19555;DHT22;9924;50.828;6.440;2022-12-13T03:08:46;-5.70;99.90
19555;DHT22;9924;50.828;6.440;2022-12-13T03:17:56;-5.80;99.90
19555;DHT22;9924;50.828;6.440;2022-12-13T03:20:51;-5.90;99.90
19555;DHT22;9924;50.828;6.440;2022-12-13T03:23:36;-5.90;99.90
19555;DHT22;9924;50.828;6.440;2022-12-13T03:26:24;-6.00;99.90
19555;DHT22;9924;50.828;6.440;2022-12-13T03:29:09;-6.10;99.90
19555;DHT22;9924;50.828;6.440;2022-12-13T03:31:53;-6.10;99.90
19555;DHT22;9924;50.828;6.440;2022-12-13T03:34:38;-6.00;99.90
19555;DHT22;9924;50.828;6.440;2022-12-13T03:37:22;-6.00;99.90
19555;DHT22;9924;50.828;6.440;2022-12-13T03:40:07;-6.10;99.90
19555;DHT22;9924;50.828;6.440;2022-12-13T03:42:52;-6.10;99.90
19555;DHT22;9924;50.828;6.440;2022-12-13T03:45:36;-6.10;99.90
19555;DHT22;9924;50.828;6.440;2022-12-13T03:48:21;-6.10;99.90
19555;DHT22;9924;50.828;6.440;2022-12-13T03:51:06;-6.00;99.90
19555;DHT22;9924;50.828;6.440;2022-12-13T03:53:51;-6.00;99.90
19555;DHT22;9924;50.828;6.440;2022-12-13T03:56:36;-6.00;99.90
19555;DHT22;9924;50.828;6.440;2022-12-13T03:59:20;-6.00;99.90
19555;DHT22;9924;50.828;6.440;2022-12-13T04:02:05;-5.90;99.90
19555;DHT22;9924;50.828;6.440;2022-12-13T04:04:49;-5.90;99.90
19555;DHT22;9924;50.828;6.440;2022-12-13T04:07:34;-5.90;99.90
19555;DHT22;9924;50.828;6.440;2022-12-13T04:10:18;-5.90;99.90
19555;DHT22;9924;50.828;6.440;2022-12-13T04:13:02;-5.70;99.90
19555;DHT22;9924;50.828;6.440;2022-12-13T04:16:06;-5.60;99.90
19555;DHT22;9924;50.828;6.440;2022-12-13T04:18:51;-5.50;99.90
19555;DHT22;9924;50.828;6.440;2022-12-13T04:21:36;-5.40;99.90
19555;DHT22;9924;50.828;6.440;2022-12-13T04:24:24;-5.30;99.90
19555;DHT22;9924;50.828;6.440;2022-12-13T04:27:08;-5.20;99.90
19555;DHT22;9924;50.828;6.440;2022-12-13T04:29:53;-5.10;99.90
19555;DHT22;9924;50.828;6.440;2022-12-13T04:32:37;-5.00;99.90
19555;DHT22;9924;50.828;6.440;2022-12-13T04:35:22;-4.90;99.90
19555;DHT22;9924;50.828;6.440;2022-12-13T04:38:07;-4.90;99.90
19555;DHT22;9924;50.828;6.440;2022-12-13T04:40:51;-4.90;99.90
19555;DHT22;9924;50.828;6.440;2022-12-13T04:43:36;-4.80;99.90
19555;DHT22;9924;50.828;6.440;2022-12-13T04:46:21;-4.80;99.90
19555;DHT22;9924;50.828;6.440;2022-12-13T04:49:05;-4.80;99.90
19555;DHT22;9924;50.828;6.440;2022-12-13T04:51:50;-4.70;99.90
19555;DHT22;9924;50.828;6.440;2022-12-13T04:54:34;-4.70;99.90
19555;DHT22;9924;50.828;6.440;2022-12-13T04:57:19;-4.60;99.90
19555;DHT22;9924;50.828;6.440;2022-12-13T05:00:05;-4.50;99.90
19555;DHT22;9924;50.828;6.440;2022-12-13T05:02:50;-4.40;99.90
19555;DHT22;9924;50.828;6.440;2022-12-13T05:05:38;-4.30;99.90
19555;DHT22;9924;50.828;6.440;2022-12-13T05:08:23;-4.20;99.90
19555;DHT22;9924;50.828;6.440;2022-12-13T05:11:09;-4.20;99.90
19555;DHT22;9924;50.828;6.440;2022-12-13T05:13:53;-4.10;99.90
19555;DHT22;9924;50.828;6.440;2022-12-13T05:16:38;-4.10;99.90
19555;DHT22;9924;50.828;6.440;2022-12-13T05:19:23;-4.00;99.90
19555;DHT22;9924;50.828;6.440;2022-12-13T05:22:09;-4.00;99.90
19555;DHT22;9924;50.828;6.440;2022-12-13T05:24:59;-4.00;99.90
19555;DHT22;9924;50.828;6.440;2022-12-13T05:27:43;-4.00;99.90
19555;DHT22;9924;50.828;6.440;2022-12-13T05:30:27;-3.90;99.90
19555;DHT22;9924;50.828;6.440;2022-12-13T05:33:12;-3.90;99.90
19555;DHT22;9924;50.828;6.440;2022-12-13T05:35:56;-3.90;99.90
19555;DHT22;9924;50.828;6.440;2022-12-13T05:38:41;-3.90;99.90
19555;DHT22;9924;50.828;6.440;2022-12-13T05:41:27;-3.90;99.90
19555;DHT22;9924;50.828;6.440;2022-12-13T05:44:12;-3.90;99.90
19555;DHT22;9924;50.828;6.440;2022-12-13T05:46:58;-3.90;99.90
19555;DHT22;9924;50.828;6.440;2022-12-13T05:49:43;-3.90;99.90
19555;DHT22;9924;50.828;6.440;2022-12-13T05:52:28;-4.00;99.90
19555;DHT22;9924;50.828;6.440;2022-12-13T05:55:12;-4.00;99.90
19555;DHT22;9924;50.828;6.440;2022-12-13T05:57:58;-4.10;99.90
19555;DHT22;9924;50.828;6.440;2022-12-13T06:00:43;-4.10;99.90
19555;DHT22;9924;50.828;6.440;2022-12-13T06:03:27;-4.20;99.90
19555;DHT22;9924;50.828;6.440;2022-12-13T06:06:12;-4.20;99.90
19555;DHT22;9924;50.828;6.440;2022-12-13T06:08:58;-4.20;99.90
19555;DHT22;9924;50.828;6.440;2022-12-13T06:11:43;-4.30;99.90
19555;DHT22;9924;50.828;6.440;2022-12-13T06:14:27;-4.40;99.90
19555;DHT22;9924;50.828;6.440;2022-12-13T06:17:12;-4.40;99.90
19555;DHT22;9924;50.828;6.440;2022-12-13T06:19:56;-4.40;99.90
19555;DHT22;9924;50.828;6.440;2022-12-13T06:22:41;-4.40;99.90
19555;DHT22;9924;50.828;6.440;2022-12-13T06:25:25;-4.40;99.90
19555;DHT22;9924;50.828;6.440;2022-12-13T06:28:09;-4.40;99.90
19555;DHT22;9924;50.828;6.440;2022-12-13T06:30:54;-4.40;99.90
19555;DHT22;9924;50.828;6.440;2022-12-13T06:33:42;-4.30;99.90
19555;DHT22;9924;50.828;6.440;2022-12-13T06:36:26;-4.30;99.90
19555;DHT22;9924;50.828;6.440;2022-12-13T06:39:11;-4.20;99.90
19555;DHT22;9924;50.828;6.440;2022-12-13T06:41:57;-4.30;99.90
19555;DHT22;9924;50.828;6.440;2022-12-13T06:44:41;-4.30;99.90
19555;DHT22;9924;50.828;6.440;2022-12-13T06:47:25;-4.30;99.90
19555;DHT22;9924;50.828;6.440;2022-12-13T06:50:11;-4.30;99.90
19555;DHT22;9924;50.828;6.440;2022-12-13T06:52:56;-4.30;99.90
19555;DHT22;9924;50.828;6.440;2022-12-13T06:55:40;-4.30;99.90
19555;DHT22;9924;50.828;6.440;2022-12-13T06:58:24;-4.30;99.90
19555;DHT22;9924;50.828;6.440;2022-12-13T07:01:12;-4.30;99.90
19555;DHT22;9924;50.828;6.440;2022-12-13T07:03:57;-4.30;99.90
19555;DHT22;9924;50.828;6.440;2022-12-13T07:06:41;-4.40;99.90
19555;DHT22;9924;50.828;6.440;2022-12-13T07:09:26;-4.50;99.90
19555;DHT22;9924;50.828;6.440;2022-12-13T07:12:10;-4.50;99.90
19555;DHT22;9924;50.828;6.440;2022-12-13T07:14:58;-4.60;99.90
19555;DHT22;9924;50.828;6.440;2022-12-13T07:17:43;-4.60;99.90
19555;DHT22;9924;50.828;6.440;2022-12-13T07:20:31;-4.70;99.90
19555;DHT22;9924;50.828;6.440;2022-12-13T07:23:16;-4.70;99.90
19555;DHT22;9924;50.828;6.440;2022-12-13T07:26:01;-4.70;99.90
19555;DHT22;9924;50.828;6.440;2022-12-13T07:28:46;-4.80;99.90
19555;DHT22;9924;50.828;6.440;2022-12-13T07:31:30;-4.80;99.90
19555;DHT22;9924;50.828;6.440;2022-12-13T07:34:14;-4.80;99.90
19555;DHT22;9924;50.828;6.440;2022-12-13T07:36:59;-4.80;99.90
19555;DHT22;9924;50.828;6.440;2022-12-13T07:39:43;-4.90;99.90
19555;DHT22;9924;50.828;6.440;2022-12-13T07:42:28;-4.90;99.90
19555;DHT22;9924;50.828;6.440;2022-12-13T07:45:12;-4.90;99.90
19555;DHT22;9924;50.828;6.440;2022-12-13T07:47:57;-4.80;99.90
19555;DHT22;9924;50.828;6.440;2022-12-13T07:50:42;-4.90;99.90
19555;DHT22;9924;50.828;6.440;2022-12-13T07:53:27;-4.90;99.90
19555;DHT22;9924;50.828;6.440;2022-12-13T07:56:12;-4.80;99.90
19555;DHT22;9924;50.828;6.440;2022-12-13T07:58:56;-4.80;99.90
19555;DHT22;9924;50.828;6.440;2022-12-13T08:01:41;-4.80;99.90
19555;DHT22;9924;50.828;6.440;2022-12-13T08:04:26;-4.80;99.90
19555;DHT22;9924;50.828;6.440;2022-12-13T08:07:11;-4.80;99.90
19555;DHT22;9924;50.828;6.440;2022-12-13T08:09:55;-4.80;99.90
19555;DHT22;9924;50.828;6.440;2022-12-13T08:12:40;-4.70;99.90
19555;DHT22;9924;50.828;6.440;2022-12-13T08:15:25;-4.70;99.90
19555;DHT22;9924;50.828;6.440;2022-12-13T08:18:10;-4.70;99.90
19555;DHT22;9924;50.828;6.440;2022-12-13T08:21:05;-4.60;99.90
19555;DHT22;9924;50.828;6.440;2022-12-13T08:23:51;-4.60;99.90
19555;DHT22;9924;50.828;6.440;2022-12-13T08:26:36;-4.60;99.90
19555;DHT22;9924;50.828;6.440;2022-12-13T08:29:21;-4.60;99.90
19555;DHT22;9924;50.828;6.440;2022-12-13T08:32:08;-4.50;99.90
19555;DHT22;9924;50.828;6.440;2022-12-13T08:34:53;-4.40;99.90
19555;DHT22;9924;50.828;6.440;2022-12-13T08:37:37;-4.30;99.90
19555;DHT22;9924;50.828;6.440;2022-12-13T08:40:22;-4.30;99.90
19555;DHT22;9924;50.828;6.440;2022-12-13T08:43:06;-4.20;99.90
19555;DHT22;9924;50.828;6.440;2022-12-13T08:45:50;-4.10;99.90
19555;DHT22;9924;50.828;6.440;2022-12-13T08:48:35;-4.00;99.90
19555;DHT22;9924;50.828;6.440;2022-12-13T08:51:20;-4.00;99.90
19555;DHT22;9924;50.828;6.440;2022-12-13T08:54:08;-3.90;99.90
19555;DHT22;9924;50.828;6.440;2022-12-13T08:56:53;-3.80;99.90
19555;DHT22;9924;50.828;6.440;2022-12-13T08:59:37;-3.80;99.90
19555;DHT22;9924;50.828;6.440;2022-12-13T09:02:21;-3.70;99.90
19555;DHT22;9924;50.828;6.440;2022-12-13T09:05:07;-3.60;99.90
19555;DHT22;9924;50.828;6.440;2022-12-13T09:07:55;-3.70;99.90
19555;DHT22;9924;50.828;6.440;2022-12-13T09:10:39;-3.60;99.90
19555;DHT22;9924;50.828;6.440;2022-12-13T09:13:24;-3.50;99.90
19555;DHT22;9924;50.828;6.440;2022-12-13T09:16:17;-3.50;99.90
19555;DHT22;9924;50.828;6.440;2022-12-13T09:19:04;-3.40;99.90
19555;DHT22;9924;50.828;6.440;2022-12-13T09:21:48;-3.20;99.90
19555;DHT22;9924;50.828;6.440;2022-12-13T09:24:33;-2.90;99.90
19555;DHT22;9924;50.828;6.440;2022-12-13T09:27:17;-2.40;99.90
19555;DHT22;9924;50.828;6.440;2022-12-13T09:30:04;-2.00;99.90
19555;DHT22;9924;50.828;6.440;2022-12-13T09:32:49;-1.50;99.90
19555;DHT22;9924;50.828;6.440;2022-12-13T09:35:37;-1.30;99.90
19555;DHT22;9924;50.828;6.440;2022-12-13T09:38:21;-0.90;99.90
19555;DHT22;9924;50.828;6.440;2022-12-13T09:41:20;-0.30;99.90
19555;DHT22;9924;50.828;6.440;2022-12-13T09:46:56;0.10;99.90
19555;DHT22;9924;50.828;6.440;2022-12-13T09:49:43;0.10;99.90
19555;DHT22;9924;50.828;6.440;2022-12-13T09:52:34;0.40;99.90
19555;DHT22;9924;50.828;6.440;2022-12-13T09:55:22;0.60;99.90
19555;DHT22;9924;50.828;6.440;2022-12-13T09:58:23;0.80;99.90
19555;DHT22;9924;50.828;6.440;2022-12-13T10:01:10;0.80;99.90
19555;DHT22;9924;50.828;6.440;2022-12-13T10:03:58;1.10;99.90
19555;DHT22;9924;50.828;6.440;2022-12-13T10:06:44;0.80;99.90
19555;DHT22;9924;50.828;6.440;2022-12-13T10:09:28;0.60;99.90
19555;DHT22;9924;50.828;6.440;2022-12-13T10:12:14;0.70;99.90
19555;DHT22;9924;50.828;6.440;2022-12-13T10:15:00;1.00;99.90
19555;DHT22;9924;50.828;6.440;2022-12-13T10:17:48;1.30;99.90
19555;DHT22;9924;50.828;6.440;2022-12-13T10:20:33;1.60;99.90
19555;DHT22;9924;50.828;6.440;2022-12-13T10:23:18;2.10;99.90
19555;DHT22;9924;50.828;6.440;2022-12-13T10:26:08;2.50;99.90
19555;DHT22;9924;50.828;6.440;2022-12-13T10:29:04;2.30;99.90
19555;DHT22;9924;50.828;6.440;2022-12-13T10:31:51;1.80;99.90
19555;DHT22;9924;50.828;6.440;2022-12-13T10:34:36;1.60;99.90
19555;DHT22;9924;50.828;6.440;2022-12-13T10:37:30;1.50;99.90
19555;DHT22;9924;50.828;6.440;2022-12-13T10:40:34;1.50;99.90
19555;DHT22;9924;50.828;6.440;2022-12-13T10:43:21;1.50;99.90
19555;DHT22;9924;50.828;6.440;2022-12-13T10:46:17;1.60;99.90
19555;DHT22;9924;50.828;6.440;2022-12-13T10:49:02;1.90;99.90
19555;DHT22;9924;50.828;6.440;2022-12-13T10:51:48;2.10;99.90
19555;DHT22;9924;50.828;6.440;2022-12-13T10:54:36;2.00;99.90
19555;DHT22;9924;50.828;6.440;2022-12-13T10:57:21;2.10;99.90
19555;DHT22;9924;50.828;6.440;2022-12-13T11:00:44;2.40;99.90
19555;DHT22;9924;50.828;6.440;2022-12-13T11:03:31;2.50;99.90
19555;DHT22;9924;50.828;6.440;2022-12-13T11:06:16;2.40;99.90
19555;DHT22;9924;50.828;6.440;2022-12-13T11:12:10;2.50;99.90
19555;DHT22;9924;50.828;6.440;2022-12-13T11:15:05;2.50;99.90
19555;DHT22;9924;50.828;6.440;2022-12-13T11:17:57;2.50;99.90
19555;DHT22;9924;50.828;6.440;2022-12-13T11:20:58;2.40;99.90
19555;DHT22;9924;50.828;6.440;2022-12-13T11:23:44;2.00;99.90
19555;DHT22;9924;50.828;6.440;2022-12-13T11:26:32;2.00;99.90
19555;DHT22;9924;50.828;6.440;2022-12-13T11:29:33;2.20;99.90
19555;DHT22;9924;50.828;6.440;2022-12-13T11:35:52;2.80;99.90
19555;DHT22;9924;50.828;6.440;2022-12-13T11:45:04;3.00;99.90
19555;DHT22;9924;50.828;6.440;2022-12-13T11:48:16;2.90;99.90
19555;DHT22;9924;50.828;6.440;2022-12-13T11:51:06;2.70;99.90
19555;DHT22;9924;50.828;6.440;2022-12-13T11:54:08;2.60;99.90
19555;DHT22;9924;50.828;6.440;2022-12-13T11:56:56;2.70;99.90
19555;DHT22;9924;50.828;6.440;2022-12-13T11:59:51;3.00;99.90
19555;DHT22;9924;50.828;6.440;2022-12-13T12:02:41;3.10;99.90
19555;DHT22;9924;50.828;6.440;2022-12-13T12:05:32;3.60;99.90
19555;DHT22;9924;50.828;6.440;2022-12-13T12:08:41;3.90;99.90
19555;DHT22;9924;50.828;6.440;2022-12-13T12:11:44;4.20;99.90
19555;DHT22;9924;50.828;6.440;2022-12-13T12:15:04;4.40;99.90
19555;DHT22;9924;50.828;6.440;2022-12-13T12:17:45;4.70;99.90
19555;DHT22;9924;50.828;6.440;2022-12-13T12:21:02;4.80;99.90
19555;DHT22;9924;50.828;6.440;2022-12-13T12:27:19;4.10;99.90
19555;DHT22;9924;50.828;6.440;2022-12-13T12:36:19;2.30;99.90
19555;DHT22;9924;50.828;6.440;2022-12-13T12:51:03;1.30;99.90
19555;DHT22;9924;50.828;6.440;2022-12-13T12:54:26;1.00;99.90
19555;DHT22;9924;50.828;6.440;2022-12-13T13:00:12;0.70;99.90
19555;DHT22;9924;50.828;6.440;2022-12-13T13:06:00;0.50;99.90
19555;DHT22;9924;50.828;6.440;2022-12-13T13:08:58;0.40;99.90
19555;DHT22;9924;50.828;6.440;2022-12-13T13:11:45;0.60;99.90
19555;DHT22;9924;50.828;6.440;2022-12-13T13:14:36;0.70;99.90
19555;DHT22;9924;50.828;6.440;2022-12-13T13:20:18;0.80;99.90
19555;DHT22;9924;50.828;6.440;2022-12-13T13:23:12;0.80;99.90
19555;DHT22;9924;50.828;6.440;2022-12-13T13:25:57;0.90;99.90
19555;DHT22;9924;50.828;6.440;2022-12-13T13:28:42;0.90;99.90
19555;DHT22;9924;50.828;6.440;2022-12-13T13:34:50;0.70;99.90
19555;DHT22;9924;50.828;6.440;2022-12-13T13:37:48;0.60;99.90
19555;DHT22;9924;50.828;6.440;2022-12-13T13:40:37;0.60;99.90
19555;DHT22;9924;50.828;6.440;2022-12-13T13:43:29;0.60;99.90
19555;DHT22;9924;50.828;6.440;2022-12-13T13:46:13;0.60;99.90
19555;DHT22;9924;50.828;6.440;2022-12-13T13:49:07;0.50;99.90
19555;DHT22;9924;50.828;6.440;2022-12-13T13:52:31;0.40;99.90
19555;DHT22;9924;50.828;6.440;2022-12-13T13:55:41;0.40;99.90
19555;DHT22;9924;50.828;6.440;2022-12-13T13:59:22;0.50;99.90
19555;DHT22;9924;50.828;6.440;2022-12-13T14:08:36;0.50;99.90
19555;DHT22;9924;50.828;6.440;2022-12-13T14:27:37;-0.10;99.90
19555;DHT22;9924;50.828;6.440;2022-12-13T14:30:24;-0.10;99.90
19555;DHT22;9924;50.828;6.440;2022-12-13T14:33:20;-0.20;99.90
19555;DHT22;9924;50.828;6.440;2022-12-13T14:36:04;-0.20;99.90
19555;DHT22;9924;50.828;6.440;2022-12-13T14:39:02;-0.20;99.90
19555;DHT22;9924;50.828;6.440;2022-12-13T14:41:49;-0.20;99.90
19555;DHT22;9924;50.828;6.440;2022-12-13T14:44:34;-0.20;99.90
19555;DHT22;9924;50.828;6.440;2022-12-13T14:47:19;-0.30;99.90
19555;DHT22;9924;50.828;6.440;2022-12-13T14:50:05;-0.40;99.90
19555;DHT22;9924;50.828;6.440;2022-12-13T14:52:50;-0.40;99.90
19555;DHT22;9924;50.828;6.440;2022-12-13T14:55:36;-0.40;99.90
19555;DHT22;9924;50.828;6.440;2022-12-13T14:58:21;-0.50;99.90
19555;DHT22;9924;50.828;6.440;2022-12-13T15:01:21;-0.50;99.90
19555;DHT22;9924;50.828;6.440;2022-12-13T15:10:04;-0.60;99.90
19555;DHT22;9924;50.828;6.440;2022-12-13T15:12:51;-0.60;99.90
19555;DHT22;9924;50.828;6.440;2022-12-13T15:15:36;-0.70;99.90
19555;DHT22;9924;50.828;6.440;2022-12-13T15:18:25;-0.70;99.90
19555;DHT22;9924;50.828;6.440;2022-12-13T15:21:36;-0.80;99.90
19555;DHT22;9924;50.828;6.440;2022-12-13T15:24:24;-0.80;99.90
19555;DHT22;9924;50.828;6.440;2022-12-13T15:27:10;-0.90;99.90
19555;DHT22;9924;50.828;6.440;2022-12-13T15:29:55;-0.90;99.90
19555;DHT22;9924;50.828;6.440;2022-12-13T15:33:04;-1.00;99.90
19555;DHT22;9924;50.828;6.440;2022-12-13T15:41:45;-1.10;99.90
19555;DHT22;9924;50.828;6.440;2022-12-13T15:44:32;-1.10;99.90
19555;DHT22;9924;50.828;6.440;2022-12-13T15:47:20;-1.10;99.90
19555;DHT22;9924;50.828;6.440;2022-12-13T15:50:06;-1.20;99.90
19555;DHT22;9924;50.828;6.440;2022-12-13T15:52:59;-1.20;99.90
19555;DHT22;9924;50.828;6.440;2022-12-13T15:55:45;-1.20;99.90
19555;DHT22;9924;50.828;6.440;2022-12-13T15:58:34;-1.20;99.90
19555;DHT22;9924;50.828;6.440;2022-12-13T16:01:27;-1.20;99.90
19555;DHT22;9924;50.828;6.440;2022-12-13T16:04:21;-1.20;99.90
19555;DHT22;9924;50.828;6.440;2022-12-13T16:07:29;-1.30;99.90
19555;DHT22;9924;50.828;6.440;2022-12-13T16:10:19;-1.30;99.90
19555;DHT22;9924;50.828;6.440;2022-12-13T16:13:05;-1.30;99.90
19555;DHT22;9924;50.828;6.440;2022-12-13T16:15:51;-1.30;99.90
19555;DHT22;9924;50.828;6.440;2022-12-13T16:18:45;-1.40;99.90
19555;DHT22;9924;50.828;6.440;2022-12-13T16:21:34;-1.30;99.90
19555;DHT22;9924;50.828;6.440;2022-12-13T16:24:19;-1.40;99.90
19555;DHT22;9924;50.828;6.440;2022-12-13T16:27:04;-1.40;99.90
19555;DHT22;9924;50.828;6.440;2022-12-13T16:29:48;-1.40;99.90
19555;DHT22;9924;50.828;6.440;2022-12-13T16:32:33;-1.40;99.90
19555;DHT22;9924;50.828;6.440;2022-12-13T16:35:18;-1.40;99.90
19555;DHT22;9924;50.828;6.440;2022-12-13T16:38:03;-1.40;99.90
19555;DHT22;9924;50.828;6.440;2022-12-13T16:40:50;-1.40;99.90
19555;DHT22;9924;50.828;6.440;2022-12-13T16:43:54;-1.50;99.90
19555;DHT22;9924;50.828;6.440;2022-12-13T16:46:39;-1.50;99.90
19555;DHT22;9924;50.828;6.440;2022-12-13T16:49:26;-1.60;99.90
19555;DHT22;9924;50.828;6.440;2022-12-13T16:52:11;-1.60;99.90
19555;DHT22;9924;50.828;6.440;2022-12-13T16:54:56;-1.60;99.90
19555;DHT22;9924;50.828;6.440;2022-12-13T16:57:53;-1.60;99.90
19555;DHT22;9924;50.828;6.440;2022-12-13T17:00:37;-1.60;99.90
19555;DHT22;9924;50.828;6.440;2022-12-13T17:03:22;-1.60;99.90
19555;DHT22;9924;50.828;6.440;2022-12-13T17:06:11;-1.70;99.90
19555;DHT22;9924;50.828;6.440;2022-12-13T17:08:57;-1.70;99.90
19555;DHT22;9924;50.828;6.440;2022-12-13T17:11:42;-1.70;99.90
19555;DHT22;9924;50.828;6.440;2022-12-13T17:14:26;-1.70;99.90
19555;DHT22;9924;50.828;6.440;2022-12-13T17:17:11;-1.70;99.90
19555;DHT22;9924;50.828;6.440;2022-12-13T17:19:55;-1.70;99.90
19555;DHT22;9924;50.828;6.440;2022-12-13T17:22:40;-1.70;99.90
19555;DHT22;9924;50.828;6.440;2022-12-13T17:25:24;-1.70;99.90
19555;DHT22;9924;50.828;6.440;2022-12-13T17:28:09;-1.70;99.90
19555;DHT22;9924;50.828;6.440;2022-12-13T17:31:06;-1.70;99.90
19555;DHT22;9924;50.828;6.440;2022-12-13T17:33:51;-1.70;99.90
19555;DHT22;9924;50.828;6.440;2022-12-13T17:36:35;-1.70;99.90
19555;DHT22;9924;50.828;6.440;2022-12-13T17:39:20;-1.70;99.90
19555;DHT22;9924;50.828;6.440;2022-12-13T17:42:05;-1.70;99.90
19555;DHT22;9924;50.828;6.440;2022-12-13T17:44:49;-1.70;99.90
19555;DHT22;9924;50.828;6.440;2022-12-13T17:47:34;-1.70;99.90
19555;DHT22;9924;50.828;6.440;2022-12-13T17:50:19;-1.70;99.90
19555;DHT22;9924;50.828;6.440;2022-12-13T17:53:04;-1.70;99.90
19555;DHT22;9924;50.828;6.440;2022-12-13T17:55:56;-1.70;99.90
19555;DHT22;9924;50.828;6.440;2022-12-13T17:58:45;-1.70;99.90
19555;DHT22;9924;50.828;6.440;2022-12-13T18:01:29;-1.70;99.90
19555;DHT22;9924;50.828;6.440;2022-12-13T18:04:18;-1.70;99.90
19555;DHT22;9924;50.828;6.440;2022-12-13T18:07:02;-1.70;99.90
19555;DHT22;9924;50.828;6.440;2022-12-13T18:09:47;-1.70;99.90
19555;DHT22;9924;50.828;6.440;2022-12-13T18:12:31;-1.70;99.90
19555;DHT22;9924;50.828;6.440;2022-12-13T18:15:16;-1.70;99.90
19555;DHT22;9924;50.828;6.440;2022-12-13T18:18:01;-1.70;99.90
19555;DHT22;9924;50.828;6.440;2022-12-13T18:20:47;-1.70;99.90
19555;DHT22;9924;50.828;6.440;2022-12-13T18:23:32;-1.70;99.90
19555;DHT22;9924;50.828;6.440;2022-12-13T18:26:18;-1.70;99.90
19555;DHT22;9924;50.828;6.440;2022-12-13T18:29:03;-1.70;99.90
19555;DHT22;9924;50.828;6.440;2022-12-13T18:31:48;-1.70;99.90
19555;DHT22;9924;50.828;6.440;2022-12-13T18:34:32;-1.70;99.90
19555;DHT22;9924;50.828;6.440;2022-12-13T18:37:17;-1.70;99.90
19555;DHT22;9924;50.828;6.440;2022-12-13T18:40:02;-1.70;99.90
19555;DHT22;9924;50.828;6.440;2022-12-13T18:42:49;-1.70;99.90
19555;DHT22;9924;50.828;6.440;2022-12-13T18:45:34;-1.70;99.90
19555;DHT22;9924;50.828;6.440;2022-12-13T18:48:19;-1.70;99.90
19555;DHT22;9924;50.828;6.440;2022-12-13T18:51:06;-1.70;99.90
19555;DHT22;9924;50.828;6.440;2022-12-13T18:53:51;-1.70;99.90
19555;DHT22;9924;50.828;6.440;2022-12-13T18:56:36;-1.70;99.90
19555;DHT22;9924;50.828;6.440;2022-12-13T18:59:20;-1.70;99.90
19555;DHT22;9924;50.828;6.440;2022-12-13T19:02:04;-1.80;99.90
19555;DHT22;9924;50.828;6.440;2022-12-13T19:04:48;-1.80;99.90
19555;DHT22;9924;50.828;6.440;2022-12-13T19:07:33;-1.80;99.90
19555;DHT22;9924;50.828;6.440;2022-12-13T19:10:17;-1.80;99.90
19555;DHT22;9924;50.828;6.440;2022-12-13T19:13:03;-1.80;99.90
19555;DHT22;9924;50.828;6.440;2022-12-13T19:15:48;-1.80;99.90
19555;DHT22;9924;50.828;6.440;2022-12-13T19:18:33;-1.90;99.90
19555;DHT22;9924;50.828;6.440;2022-12-13T19:21:20;-1.90;99.90
19555;DHT22;9924;50.828;6.440;2022-12-13T19:24:05;-1.90;99.90
19555;DHT22;9924;50.828;6.440;2022-12-13T19:26:49;-1.90;99.90
19555;DHT22;9924;50.828;6.440;2022-12-13T19:29:35;-1.90;99.90
19555;DHT22;9924;50.828;6.440;2022-12-13T19:32:20;-1.90;99.90
19555;DHT22;9924;50.828;6.440;2022-12-13T19:35:04;-2.00;99.90
19555;DHT22;9924;50.828;6.440;2022-12-13T19:37:49;-1.90;99.90
19555;DHT22;9924;50.828;6.440;2022-12-13T19:40:36;-1.90;99.90
19555;DHT22;9924;50.828;6.440;2022-12-13T19:43:21;-1.90;99.90
19555;DHT22;9924;50.828;6.440;2022-12-13T19:46:06;-1.90;99.90
19555;DHT22;9924;50.828;6.440;2022-12-13T19:48:52;-1.90;99.90
19555;DHT22;9924;50.828;6.440;2022-12-13T19:51:36;-1.90;99.90